createdAt,value
2018-05-10T00:01:58.904Z,68.70
2018-05-10T00:04:27.173Z,69.00
2018-05-10T00:06:56.229Z,69.90
2018-05-10T00:09:24.475Z,69.90
2018-05-10T00:11:52.755Z,69.90
2018-05-10T00:14:21.020Z,70.20
2018-05-10T00:16:50.057Z,69.90
2018-05-10T00:19:18.314Z,69.90
2018-05-10T00:21:46.717Z,69.30
2018-05-10T00:24:15.845Z,69.50
2018-05-10T00:26:44.105Z,70.00
2018-05-10T00:29:12.444Z,70.30
2018-05-10T00:31:40.650Z,70.10
2018-05-10T00:34:09.670Z,70.40
2018-05-10T00:36:37.929Z,70.40
2018-05-10T00:39:06.215Z,70.40
2018-05-10T00:41:35.339Z,70.30
2018-05-10T00:44:03.614Z,70.00
2018-05-10T00:46:32.133Z,70.10
2018-05-10T00:49:00.398Z,70.10
2018-05-10T00:51:29.150Z,70.60
2018-05-10T00:53:57.417Z,71.00
2018-05-10T00:56:26.459Z,71.80
2018-05-10T00:58:54.969Z,71.80
2018-05-10T01:01:23.223Z,73.00
2018-05-10T01:03:52.111Z,73.00
2018-05-10T01:06:20.353Z,73.60
2018-05-10T01:08:49.392Z,74.50
2018-05-10T01:11:17.659Z,74.50
2018-05-10T01:13:47.644Z,76.60
2018-05-10T01:16:16.033Z,76.60
2018-05-10T01:18:45.066Z,79.50
2018-05-10T01:21:13.314Z,79.50
2018-05-10T01:23:41.556Z,80.60
2018-05-10T01:26:09.801Z,80.60
2018-05-10T01:28:38.074Z,81.10
2018-05-10T01:31:07.090Z,81.30
2018-05-10T01:33:35.843Z,81.20
2018-05-10T01:36:14.871Z,80.70
2018-05-10T01:38:44.076Z,81.00
2018-05-10T01:41:12.340Z,80.90
2018-05-10T01:43:40.597Z,81.20
2018-05-10T01:46:08.857Z,81.40
2018-05-10T01:48:37.119Z,82.10
2018-05-10T01:51:05.362Z,82.50
2018-05-10T01:53:40.644Z,82.40
2018-05-10T01:56:08.961Z,82.00
2018-05-10T01:58:37.225Z,82.20
2018-05-10T02:01:05.488Z,83.00
2018-05-10T02:03:33.772Z,82.50
2018-05-10T02:06:02.204Z,83.10
2018-05-10T02:08:31.322Z,83.10
2018-05-10T02:10:59.607Z,82.90
2018-05-10T02:13:27.852Z,82.70
2018-05-10T02:15:56.110Z,82.50
2018-05-10T02:18:24.336Z,82.30
2018-05-10T02:20:53.533Z,82.20
2018-05-10T02:23:21.767Z,82.30
2018-05-10T02:25:50.037Z,81.50
2018-05-10T02:28:19.061Z,81.90
2018-05-10T02:30:47.293Z,81.90
2018-05-10T02:33:15.568Z,82.00
2018-05-10T02:35:43.834Z,83.00
2018-05-10T02:38:12.096Z,82.30
2018-05-10T02:40:40.354Z,82.40
2018-05-10T02:43:08.656Z,81.80
2018-05-10T02:45:36.890Z,82.20
2018-05-10T02:48:05.930Z,81.60
2018-05-10T02:50:34.460Z,81.60
2018-05-10T02:53:02.724Z,82.20
2018-05-10T02:55:30.953Z,82.30
2018-05-10T02:58:00.013Z,81.20
2018-05-10T03:00:28.273Z,81.20
2018-05-10T03:02:56.529Z,82.00
2018-05-10T03:05:24.772Z,81.70
2018-05-10T03:07:53.013Z,82.80
2018-05-10T03:10:21.286Z,82.20
2018-05-10T03:12:49.520Z,82.00
2018-05-10T03:15:18.566Z,81.40
2018-05-10T03:17:46.809Z,81.50
2018-05-10T03:20:16.619Z,81.20
2018-05-10T03:22:44.863Z,81.20
2018-05-10T03:25:13.113Z,80.90
2018-05-10T03:27:41.355Z,80.90
2018-05-10T03:30:09.633Z,81.90
2018-05-10T03:32:37.915Z,81.70
2018-05-10T03:35:06.152Z,81.90
2018-05-10T03:37:34.408Z,82.40
2018-05-10T03:40:02.688Z,81.10
2018-05-10T03:42:31.704Z,81.00
2018-05-10T03:45:00.697Z,80.90
2018-05-10T03:47:28.948Z,79.90
2018-05-10T03:49:58.002Z,80.30
2018-05-10T03:52:26.276Z,80.30
2018-05-10T03:54:54.508Z,80.00
2018-05-10T03:57:30.170Z,79.90
2018-05-10T03:59:58.957Z,79.80
2018-05-10T04:02:39.907Z,80.90
2018-05-10T04:05:20.082Z,80.90
2018-05-10T04:08:01.091Z,80.00
2018-05-10T04:10:41.316Z,80.00
2018-05-10T04:13:10.320Z,80.20
2018-05-10T04:15:38.680Z,80.20
2018-05-10T04:18:08.494Z,80.00
2018-05-10T04:20:37.526Z,80.40
2018-05-10T04:23:05.768Z,80.40
2018-05-10T04:25:34.033Z,80.10
2018-05-10T04:28:02.290Z,80.50
2018-05-10T04:30:30.541Z,79.70
2018-05-10T04:32:58.801Z,79.80
2018-05-10T04:35:27.039Z,79.70
2018-05-10T04:37:56.023Z,79.90
2018-05-10T04:40:24.841Z,80.00
2018-05-10T04:42:53.111Z,78.30
2018-05-10T04:45:21.967Z,77.90
2018-05-10T04:47:50.221Z,77.80
2018-05-10T04:50:18.490Z,77.90
2018-05-10T04:52:48.148Z,77.50
2018-05-10T04:55:16.398Z,77.20
2018-05-10T04:57:44.635Z,76.90
2018-05-10T05:00:12.904Z,78.30
2018-05-10T05:02:41.219Z,77.90
2018-05-10T05:05:09.469Z,77.80
2018-05-10T05:07:37.731Z,78.20
2018-05-10T05:10:06.083Z,78.20
2018-05-10T05:12:35.056Z,78.50
2018-05-10T05:15:03.299Z,77.20
2018-05-10T05:17:31.809Z,76.70
2018-05-10T05:20:00.046Z,77.00
2018-05-10T05:22:29.074Z,77.20
2018-05-10T05:24:57.340Z,77.10
2018-05-10T05:27:26.122Z,76.60
2018-05-10T05:29:55.136Z,75.00
2018-05-10T05:32:23.773Z,74.90
2018-05-10T05:34:52.035Z,75.80
2018-05-10T05:37:20.296Z,76.70
2018-05-10T05:39:49.435Z,76.60
2018-05-10T05:42:17.688Z,77.70
2018-05-10T05:44:45.995Z,76.70
2018-05-10T05:47:14.315Z,77.00
2018-05-10T05:49:42.487Z,76.90
2018-05-10T05:52:10.806Z,77.60
2018-05-10T05:54:39.057Z,78.00
2018-05-10T05:57:08.080Z,77.70
2018-05-10T05:59:37.133Z,76.20
2018-05-10T06:02:05.375Z,76.20
2018-05-10T06:04:34.423Z,75.50
2018-05-10T06:07:02.661Z,76.30
2018-05-10T06:09:30.910Z,76.70
2018-05-10T06:11:59.185Z,76.50
2018-05-10T06:14:28.215Z,75.10
2018-05-10T06:16:56.470Z,75.10
2018-05-10T06:19:24.725Z,74.40
2018-05-10T06:21:52.974Z,75.00
2018-05-10T06:24:21.275Z,75.40
2018-05-10T06:26:49.549Z,75.60
2018-05-10T06:29:17.794Z,76.00
2018-05-10T06:31:46.100Z,76.60
2018-05-10T06:34:15.264Z,76.20
2018-05-10T06:36:43.577Z,76.50
2018-05-10T06:39:11.845Z,77.00
2018-05-10T06:41:40.124Z,77.10
2018-05-10T06:44:08.400Z,77.00
2018-05-10T06:46:36.708Z,77.00
2018-05-10T06:49:04.972Z,76.70
2018-05-10T06:51:34.091Z,77.70
2018-05-10T06:54:02.329Z,77.30
2018-05-10T06:56:30.596Z,76.40
2018-05-10T06:58:59.771Z,77.20
2018-05-10T07:01:28.011Z,77.10
2018-05-10T07:03:56.302Z,79.00
2018-05-10T07:06:24.561Z,77.50
2018-05-10T07:08:52.848Z,78.50
2018-05-10T07:11:21.100Z,78.90
2018-05-10T07:13:50.184Z,80.00
2018-05-10T07:16:18.434Z,79.90
2018-05-10T07:18:46.705Z,79.90
2018-05-10T07:21:14.967Z,78.10
2018-05-10T07:23:43.637Z,77.60
2018-05-10T07:26:11.904Z,78.00
2018-05-10T07:28:40.197Z,77.60
2018-05-10T07:31:09.254Z,75.80
2018-05-10T07:33:37.535Z,75.80
2018-05-10T07:36:05.806Z,76.10
2018-05-10T07:38:34.154Z,75.10
2018-05-10T07:41:02.703Z,74.40
2018-05-10T07:43:30.964Z,74.00
2018-05-10T07:45:59.222Z,73.70
2018-05-10T07:48:27.505Z,73.20
2018-05-10T07:50:56.628Z,72.20
2018-05-10T07:53:25.716Z,73.10
2018-05-10T07:55:54.024Z,73.10
2018-05-10T07:58:22.293Z,73.70
2018-05-10T08:00:50.597Z,73.50
2018-05-10T08:03:18.912Z,72.70
2018-05-10T08:05:47.941Z,72.70
2018-05-10T08:08:16.719Z,72.60
2018-05-10T08:10:45.778Z,71.00
2018-05-10T08:13:14.045Z,70.90
2018-05-10T08:15:42.321Z,71.40
2018-05-10T08:18:10.568Z,69.70
2018-05-10T08:20:38.917Z,67.50
2018-05-10T08:23:07.152Z,67.10
2018-05-10T08:25:35.444Z,65.60
2018-05-10T08:28:03.672Z,64.20
2018-05-10T08:30:32.725Z,63.40
2018-05-10T08:33:00.981Z,63.20
2018-05-10T08:35:29.235Z,64.20
2018-05-10T08:37:58.264Z,64.10
2018-05-10T08:40:27.168Z,64.10
2018-05-10T08:42:55.522Z,62.00
2018-05-10T08:45:23.709Z,62.00
2018-05-10T08:47:52.483Z,61.70
2018-05-10T08:50:21.518Z,60.90
2018-05-10T08:52:49.770Z,60.90
2018-05-10T08:55:18.822Z,59.60
2018-05-10T08:57:47.694Z,59.60
2018-05-10T09:00:15.978Z,59.80
2018-05-10T09:02:44.262Z,61.30
2018-05-10T09:05:12.488Z,60.20
2018-05-10T09:07:40.749Z,60.10
2018-05-10T09:10:09.003Z,60.50
2018-05-10T09:12:37.248Z,60.70
2018-05-10T09:15:06.311Z,58.50
2018-05-10T09:17:34.559Z,58.50
2018-05-10T09:20:02.841Z,58.90
2018-05-10T09:22:31.093Z,59.10
2018-05-10T09:25:00.129Z,58.80
2018-05-10T09:27:28.414Z,58.80
2018-05-10T09:29:56.678Z,59.40
2018-05-10T09:32:24.917Z,59.30
2018-05-10T09:34:53.211Z,58.70
2018-05-10T09:37:21.484Z,58.50
2018-05-10T09:39:50.333Z,58.90
2018-05-10T09:42:18.632Z,58.90
2018-05-10T09:44:46.898Z,58.50
2018-05-10T09:47:15.160Z,59.10
2018-05-10T09:49:44.159Z,59.20
2018-05-10T09:52:12.397Z,59.40
2018-05-10T09:54:40.644Z,59.80
2018-05-10T09:57:09.693Z,58.70
2018-05-10T09:59:38.708Z,59.50
2018-05-10T10:02:06.979Z,59.40
2018-05-10T10:04:35.258Z,58.80
2018-05-10T10:07:04.380Z,58.30
2018-05-10T10:09:32.628Z,58.30
2018-05-10T10:12:01.660Z,57.60
2018-05-10T10:14:29.910Z,57.60
2018-05-10T10:16:58.184Z,57.40
2018-05-10T10:19:26.441Z,56.30
2018-05-10T10:21:55.263Z,54.80
2018-05-10T10:24:24.263Z,52.30
2018-05-10T10:26:52.507Z,52.30
2018-05-10T10:29:20.744Z,52.40
2018-05-10T10:31:49.220Z,51.20
2018-05-10T10:34:18.197Z,50.40
2018-05-10T10:36:46.476Z,50.10
2018-05-10T10:39:14.724Z,50.70
2018-05-10T10:41:43.185Z,51.20
2018-05-10T10:44:11.415Z,52.30
2018-05-10T10:46:39.667Z,52.70
2018-05-10T10:49:08.675Z,51.10
2018-05-10T10:51:36.941Z,50.00
2018-05-10T10:54:05.172Z,50.30
2018-05-10T10:56:33.417Z,50.00
2018-05-10T10:59:01.660Z,49.90
2018-05-10T11:01:29.907Z,49.30
2018-05-10T11:03:58.181Z,48.20
2018-05-10T11:06:26.445Z,48.00
2018-05-10T11:08:54.682Z,47.40
2018-05-10T11:11:22.962Z,44.90
2018-05-10T11:13:57.184Z,45.30
2018-05-10T11:16:26.190Z,44.60
2018-05-10T11:18:54.544Z,44.60
2018-05-10T11:21:23.598Z,48.30
2018-05-10T11:23:51.809Z,48.20
2018-05-10T11:26:20.808Z,49.80
2018-05-10T11:28:49.054Z,51.50
2018-05-10T11:31:17.394Z,52.50
2018-05-10T11:33:45.552Z,53.90
2018-05-10T11:36:13.827Z,55.50
2018-05-10T11:38:42.070Z,57.80
2018-05-10T11:41:10.320Z,58.20
2018-05-10T11:43:39.764Z,60.60
2018-05-10T11:46:08.140Z,59.90
2018-05-10T11:48:36.411Z,60.90
2018-05-10T11:51:05.404Z,62.50
2018-05-10T11:53:33.672Z,62.50
2018-05-10T11:56:02.696Z,64.00
2018-05-10T11:58:30.980Z,64.00
2018-05-10T12:00:59.308Z,63.50
2018-05-10T12:03:27.579Z,63.70
2018-05-10T12:05:55.829Z,63.90
2018-05-10T12:08:24.115Z,64.20
2018-05-10T12:10:52.348Z,64.30
2018-05-10T12:13:21.366Z,64.50
2018-05-10T12:15:49.672Z,64.40
2018-05-10T12:18:18.652Z,63.90
2018-05-10T12:20:48.108Z,62.60
2018-05-10T12:23:16.433Z,63.30
2018-05-10T12:25:45.453Z,66.20
2018-05-10T12:28:13.740Z,66.20
2018-05-10T12:30:42.009Z,66.10
2018-05-10T12:33:10.311Z,66.40
2018-05-10T12:35:38.598Z,67.00
2018-05-10T12:38:06.868Z,67.40
2018-05-10T12:40:35.117Z,67.50
2018-05-10T12:43:04.159Z,67.90
2018-05-10T12:45:32.442Z,67.90
2018-05-10T12:48:00.718Z,68.10
2018-05-10T12:50:28.980Z,67.60
2018-05-10T12:52:57.265Z,68.70
2018-05-10T12:55:25.555Z,68.90
2018-05-10T12:57:53.867Z,69.80
2018-05-10T13:00:22.085Z,71.10
2018-05-10T13:02:50.563Z,71.40
2018-05-10T13:05:19.576Z,75.00
2018-05-10T13:07:47.825Z,75.00
2018-05-10T13:10:16.069Z,73.90
2018-05-10T13:12:44.325Z,74.10
2018-05-10T13:15:12.585Z,74.10
2018-05-10T13:17:41.656Z,72.60
2018-05-10T13:20:09.897Z,72.50
2018-05-10T13:22:38.142Z,72.40
2018-05-10T13:25:07.873Z,74.30
2018-05-10T13:27:36.890Z,75.10
2018-05-10T13:30:05.158Z,75.10
2018-05-10T13:32:34.363Z,75.70
2018-05-10T13:35:03.388Z,76.60
2018-05-10T13:37:32.225Z,76.60
2018-05-10T13:40:00.500Z,75.10
2018-05-10T13:42:28.757Z,74.90
2018-05-10T13:44:57.013Z,75.70
2018-05-10T13:47:25.323Z,76.90
2018-05-10T13:49:53.588Z,76.90
2018-05-10T13:52:21.836Z,76.30
2018-05-10T13:54:50.855Z,75.50
2018-05-10T13:57:19.701Z,75.50
2018-05-10T13:59:47.969Z,77.20
2018-05-10T14:02:16.319Z,77.80
2018-05-10T14:04:45.308Z,76.80
2018-05-10T14:07:13.557Z,76.00
2018-05-10T14:09:42.619Z,77.80
2018-05-10T14:12:10.850Z,77.90
2018-05-10T14:14:39.121Z,77.20
2018-05-10T14:17:08.784Z,79.30
2018-05-10T14:19:37.069Z,79.30
2018-05-10T14:22:06.126Z,78.90
2018-05-10T14:24:35.050Z,78.30
2018-05-10T14:27:03.320Z,78.50
2018-05-10T14:29:31.597Z,78.50
2018-05-10T14:31:59.858Z,78.60
2018-05-10T14:34:28.960Z,79.50
2018-05-10T14:36:57.956Z,79.70
2018-05-10T14:39:26.984Z,79.60
2018-05-10T14:41:55.702Z,79.60
2018-05-10T14:44:23.961Z,79.00
2018-05-10T14:46:52.261Z,78.70
2018-05-10T14:49:20.501Z,77.80
2018-05-10T14:51:48.796Z,78.40
2018-05-10T14:54:17.118Z,79.00
2018-05-10T14:56:45.389Z,79.50
2018-05-10T14:59:13.644Z,77.80
2018-05-10T15:01:41.902Z,77.80
2018-05-10T15:04:10.926Z,78.20
2018-05-10T15:06:39.164Z,78.20
2018-05-10T15:09:08.199Z,78.00
2018-05-10T15:11:36.439Z,78.00
2018-05-10T15:14:04.688Z,75.90
2018-05-10T15:16:32.952Z,74.60
2018-05-10T15:19:01.197Z,74.60
2018-05-10T15:21:30.351Z,73.30
2018-05-10T15:23:58.629Z,73.30
2018-05-10T15:26:26.875Z,74.10
2018-05-10T15:28:55.123Z,72.50
2018-05-10T15:31:23.404Z,71.80
2018-05-10T15:33:51.658Z,72.10
2018-05-10T15:36:19.948Z,71.90
2018-05-10T15:38:48.207Z,70.50
2018-05-10T15:41:16.468Z,69.90
2018-05-10T15:43:44.744Z,69.20
2018-05-10T15:46:13.066Z,68.90
2018-05-10T15:48:41.363Z,68.40
2018-05-10T15:51:09.641Z,67.90
2018-05-10T15:53:38.411Z,67.70
2018-05-10T15:56:06.689Z,64.60
2018-05-10T15:58:34.944Z,64.90
2018-05-10T16:01:03.293Z,64.60
2018-05-10T16:03:35.234Z,64.10
2018-05-10T16:06:03.529Z,63.50
2018-05-10T16:08:31.786Z,62.20
2018-05-10T16:11:00.060Z,62.60
2018-05-10T16:13:28.352Z,60.00
2018-05-10T16:15:56.630Z,58.90
2018-05-10T16:18:24.860Z,59.30
2018-05-10T16:20:54.049Z,57.70
2018-05-10T16:23:22.300Z,57.70
2018-05-10T16:25:50.570Z,56.10
2018-05-10T16:28:19.288Z,57.30
2018-05-10T16:30:47.576Z,55.70
2018-05-10T16:33:15.894Z,55.90
2018-05-10T16:35:44.928Z,56.00
2018-05-10T16:38:13.178Z,56.00
2018-05-10T16:40:42.236Z,57.00
2018-05-10T16:43:10.468Z,56.90
2018-05-10T16:45:39.361Z,56.50
2018-05-10T16:48:07.583Z,57.00
2018-05-10T16:50:35.851Z,56.80
2018-05-10T16:53:04.108Z,56.80
2018-05-10T16:55:32.363Z,56.60
2018-05-10T16:58:01.366Z,53.10
2018-05-10T17:00:30.376Z,50.80
2018-05-10T17:02:58.628Z,50.90
2018-05-10T17:05:27.530Z,50.80
2018-05-10T17:07:55.780Z,51.40
2018-05-10T17:10:24.895Z,51.50
2018-05-10T17:12:53.144Z,52.30
2018-05-10T17:15:21.391Z,53.20
2018-05-10T17:17:50.433Z,54.70
2018-05-10T17:20:19.592Z,54.60
2018-05-10T17:22:48.617Z,55.30
2018-05-10T17:25:16.836Z,55.20
2018-05-10T17:27:45.127Z,55.00
2018-05-10T17:30:13.362Z,55.40
2018-05-10T17:32:41.623Z,55.40
2018-05-10T17:35:09.860Z,55.90
2018-05-10T17:37:38.092Z,56.40
2018-05-10T17:40:06.379Z,56.60
2018-05-10T17:42:34.753Z,57.20
2018-05-10T17:45:03.789Z,57.50
2018-05-10T17:47:32.007Z,57.40
2018-05-10T17:50:01.025Z,57.50
2018-05-10T17:52:30.018Z,57.70
2018-05-10T17:54:59.030Z,58.30
2018-05-10T17:57:28.170Z,58.40
2018-05-10T17:59:56.417Z,58.40
2018-05-10T18:02:24.701Z,58.40
2018-05-10T18:04:52.932Z,58.30
2018-05-10T18:07:21.967Z,58.80
2018-05-10T18:09:50.952Z,59.00
2018-05-10T18:12:19.975Z,59.30
2018-05-10T18:14:48.712Z,59.30
2018-05-10T18:17:16.991Z,60.50
2018-05-10T18:19:45.996Z,60.10
2018-05-10T18:22:14.252Z,60.10
2018-05-10T18:24:43.100Z,59.70
2018-05-10T18:27:12.120Z,60.20
2018-05-10T18:29:40.418Z,60.20
2018-05-10T18:32:08.677Z,59.60
2018-05-10T18:34:36.919Z,59.50
2018-05-10T18:37:05.213Z,59.50
2018-05-10T18:39:34.257Z,59.40
2018-05-10T18:42:02.518Z,59.30
2018-05-10T18:44:30.767Z,59.40
2018-05-10T18:46:59.038Z,59.40
2018-05-10T18:49:27.296Z,59.40
2018-05-10T18:51:55.626Z,60.20
2018-05-10T18:54:23.862Z,59.80
2018-05-10T18:56:52.114Z,60.70
2018-05-10T18:59:21.103Z,59.80
2018-05-10T19:01:49.351Z,59.80
2018-05-10T19:04:17.608Z,59.80
2018-05-10T19:06:45.844Z,59.80
2018-05-10T19:09:14.104Z,59.70
2018-05-10T19:11:43.124Z,60.00
2018-05-10T19:14:11.677Z,59.90
2018-05-10T19:16:39.927Z,61.80
2018-05-10T19:19:08.195Z,61.20
2018-05-10T19:21:36.457Z,61.50
2018-05-10T19:24:04.751Z,61.70
2018-05-10T19:26:33.024Z,62.50
2018-05-10T19:29:02.015Z,63.50
2018-05-10T19:31:30.245Z,63.40
2018-05-10T19:33:58.504Z,63.20
2018-05-10T19:36:26.741Z,63.20
2018-05-10T19:38:55.775Z,63.00
2018-05-10T19:41:24.055Z,63.00
2018-05-10T19:43:53.090Z,64.70
2018-05-10T19:46:21.325Z,64.70
2018-05-10T19:48:49.594Z,65.70
2018-05-10T19:51:18.671Z,66.20
2018-05-10T19:53:46.956Z,66.20
2018-05-10T19:56:15.955Z,66.40
2018-05-10T19:58:44.981Z,68.00
2018-05-10T20:01:13.899Z,68.00
2018-05-10T20:03:42.180Z,67.00
2018-05-10T20:06:11.174Z,68.40
2018-05-10T20:08:39.468Z,68.70
2018-05-10T20:11:07.690Z,68.00
2018-05-10T20:13:36.790Z,70.30
2018-05-10T20:16:05.008Z,70.00
2018-05-10T20:18:33.280Z,70.20
2018-05-10T20:21:01.528Z,70.00
2018-05-10T20:23:30.544Z,70.50
2018-05-10T20:25:59.651Z,71.50
2018-05-10T20:28:27.879Z,71.50
2018-05-10T20:30:56.124Z,72.10
2018-05-10T20:33:25.127Z,73.30
2018-05-10T20:35:53.339Z,73.30
2018-05-10T20:38:21.627Z,73.70
2018-05-10T20:40:49.873Z,73.90
2018-05-10T20:43:18.108Z,74.40
2018-05-10T20:45:46.392Z,74.80
2018-05-10T20:48:15.466Z,75.30
2018-05-10T20:50:44.427Z,75.30
2018-05-10T20:53:12.668Z,75.60
2018-05-10T20:55:40.969Z,75.90
2018-05-10T20:58:09.976Z,76.70
2018-05-10T21:00:38.256Z,76.70
2018-05-10T21:03:07.236Z,77.10
2018-05-10T21:05:35.980Z,77.10
2018-05-10T21:08:04.201Z,77.40
2018-05-10T21:10:32.524Z,77.80
2018-05-10T21:13:00.829Z,77.90
2018-05-10T21:15:29.078Z,78.00
2018-05-10T21:17:57.313Z,77.90
2018-05-10T21:20:25.572Z,77.60
2018-05-10T21:22:53.821Z,77.20
2018-05-10T21:25:22.868Z,76.80
2018-05-10T21:27:51.137Z,76.50
2018-05-10T21:30:19.398Z,76.20
2018-05-10T21:32:47.735Z,76.00
2018-05-10T21:35:16.011Z,75.70
2018-05-10T21:37:44.252Z,75.20
2018-05-10T21:40:12.562Z,74.90
2018-05-10T21:42:40.785Z,74.80
2018-05-10T21:45:09.031Z,74.70
2018-05-10T21:47:37.271Z,74.30
2018-05-10T21:50:06.465Z,72.80
2018-05-10T21:52:34.691Z,71.70
2018-05-10T21:55:03.013Z,72.00
2018-05-10T21:57:31.189Z,71.80
2018-05-10T21:59:59.436Z,72.40
2018-05-10T22:02:27.683Z,72.50
2018-05-10T22:04:55.936Z,72.40
2018-05-10T22:07:24.203Z,72.00
2018-05-10T22:09:52.420Z,72.20
2018-05-10T22:12:20.673Z,72.20
2018-05-10T22:14:49.733Z,72.10
2018-05-10T22:17:17.969Z,72.10
2018-05-10T22:19:46.972Z,72.40
2018-05-10T22:22:15.209Z,73.00
2018-05-10T22:24:44.202Z,73.00
2018-05-10T22:27:12.457Z,72.90
2018-05-10T22:29:40.708Z,73.70
2018-05-10T22:32:08.943Z,74.00
2018-05-10T22:34:37.220Z,73.90
2018-05-10T22:37:05.479Z,73.40
2018-05-10T22:39:33.720Z,73.00
2018-05-10T22:42:01.960Z,73.40
2018-05-10T22:44:30.313Z,73.90
2018-05-10T22:46:59.368Z,73.90
2018-05-10T22:49:28.954Z,75.60
2018-05-10T22:51:57.240Z,75.60
2018-05-10T22:54:25.473Z,76.90
2018-05-10T22:56:53.716Z,76.10
2018-05-10T22:59:23.311Z,76.70
2018-05-10T23:01:51.573Z,76.60
2018-05-10T23:04:20.400Z,75.60
2018-05-10T23:06:48.643Z,75.50
2018-05-10T23:09:16.964Z,75.30
2018-05-10T23:11:45.923Z,75.70
2018-05-10T23:14:14.712Z,76.30
2018-05-10T23:16:43.012Z,77.60
2018-05-10T23:19:11.720Z,77.50
2018-05-10T23:21:40.004Z,76.50
2018-05-10T23:24:08.269Z,77.50
2018-05-10T23:26:37.293Z,78.70
2018-05-10T23:29:06.346Z,77.20
2018-05-10T23:31:34.638Z,77.20
2018-05-10T23:34:02.870Z,76.60
2018-05-10T23:36:31.240Z,77.30
2018-05-10T23:39:03.733Z,79.50
2018-05-10T23:41:32.039Z,79.50
2018-05-10T23:44:00.272Z,79.50
2018-05-10T23:46:29.370Z,78.70
2018-05-10T23:48:58.313Z,78.70
2018-05-10T23:51:26.554Z,78.80
2018-05-10T23:53:55.549Z,78.50
2018-05-10T23:56:24.606Z,78.50
2018-05-10T23:58:54.331Z,78.50
